sensor_id;sensor_type;location;lat;lon;timestamp;P1;durP1;ratioP1;P2;durP2;ratioP2
75614;SDS011;64199;48.578;-4.520;2024-03-17T00:00:59;2.00;;;0.88;;
75614;SDS011;64199;48.578;-4.520;2024-03-17T00:03:28;1.52;;;0.70;;
75614;SDS011;64199;48.578;-4.520;2024-03-17T00:05:58;1.70;;;0.70;;
75614;SDS011;64199;48.578;-4.520;2024-03-17T00:08:25;1.67;;;1.10;;
75614;SDS011;64199;48.578;-4.520;2024-03-17T00:10:52;3.00;;;1.02;;
75614;SDS011;64199;48.578;-4.520;2024-03-17T00:13:18;1.00;;;0.70;;
75614;SDS011;64199;48.578;-4.520;2024-03-17T00:15:44;1.50;;;0.73;;
75614;SDS011;64199;48.578;-4.520;2024-03-17T00:18:10;2.28;;;0.80;;
75614;SDS011;64199;48.578;-4.520;2024-03-17T00:20:36;2.58;;;0.60;;
75614;SDS011;64199;48.578;-4.520;2024-03-17T00:23:03;0.88;;;0.55;;
75614;SDS011;64199;48.578;-4.520;2024-03-17T00:25:31;0.88;;;0.75;;
75614;SDS011;64199;48.578;-4.520;2024-03-17T00:27:59;1.23;;;0.50;;
75614;SDS011;64199;48.578;-4.520;2024-03-17T00:30:25;1.55;;;0.75;;
75614;SDS011;64199;48.578;-4.520;2024-03-17T00:32:51;2.72;;;0.70;;
75614;SDS011;64199;48.578;-4.520;2024-03-17T00:35:17;0.77;;;0.65;;
75614;SDS011;64199;48.578;-4.520;2024-03-17T00:37:49;0.93;;;0.45;;
75614;SDS011;64199;48.578;-4.520;2024-03-17T00:40:16;1.80;;;0.73;;
75614;SDS011;64199;48.578;-4.520;2024-03-17T00:42:45;1.48;;;0.80;;
75614;SDS011;64199;48.578;-4.520;2024-03-17T00:45:12;0.75;;;0.50;;
75614;SDS011;64199;48.578;-4.520;2024-03-17T00:47:38;2.42;;;0.57;;
75614;SDS011;64199;48.578;-4.520;2024-03-17T00:50:04;0.93;;;0.60;;
75614;SDS011;64199;48.578;-4.520;2024-03-17T00:52:34;0.88;;;0.50;;
75614;SDS011;64199;48.578;-4.520;2024-03-17T00:55:00;1.27;;;0.50;;
75614;SDS011;64199;48.578;-4.520;2024-03-17T00:57:26;0.70;;;0.45;;
75614;SDS011;64199;48.578;-4.520;2024-03-17T00:59:51;2.35;;;0.70;;
75614;SDS011;64199;48.578;-4.520;2024-03-17T01:02:18;0.68;;;0.57;;
75614;SDS011;64199;48.578;-4.520;2024-03-17T01:04:44;1.52;;;0.60;;
75614;SDS011;64199;48.578;-4.520;2024-03-17T01:07:10;1.63;;;0.55;;
75614;SDS011;64199;48.578;-4.520;2024-03-17T01:09:37;0.85;;;0.52;;
75614;SDS011;64199;48.578;-4.520;2024-03-17T01:12:04;0.73;;;0.40;;
75614;SDS011;64199;48.578;-4.520;2024-03-17T01:14:30;1.33;;;0.60;;
75614;SDS011;64199;48.578;-4.520;2024-03-17T01:16:57;0.98;;;0.50;;
75614;SDS011;64199;48.578;-4.520;2024-03-17T01:19:23;1.38;;;0.50;;
75614;SDS011;64199;48.578;-4.520;2024-03-17T01:21:50;0.55;;;0.50;;
75614;SDS011;64199;48.578;-4.520;2024-03-17T01:24:17;1.98;;;0.40;;
75614;SDS011;64199;48.578;-4.520;2024-03-17T01:26:43;1.48;;;0.50;;
75614;SDS011;64199;48.578;-4.520;2024-03-17T01:29:10;0.50;;;0.47;;
75614;SDS011;64199;48.578;-4.520;2024-03-17T01:31:36;0.60;;;0.45;;
75614;SDS011;64199;48.578;-4.520;2024-03-17T01:34:02;1.70;;;0.57;;
75614;SDS011;64199;48.578;-4.520;2024-03-17T01:36:28;0.60;;;0.43;;
75614;SDS011;64199;48.578;-4.520;2024-03-17T01:38:54;0.60;;;0.50;;
75614;SDS011;64199;48.578;-4.520;2024-03-17T01:41:20;1.02;;;0.70;;
75614;SDS011;64199;48.578;-4.520;2024-03-17T01:43:46;1.00;;;0.50;;
75614;SDS011;64199;48.578;-4.520;2024-03-17T01:46:13;2.58;;;0.52;;
75614;SDS011;64199;48.578;-4.520;2024-03-17T01:48:43;2.92;;;0.68;;
75614;SDS011;64199;48.578;-4.520;2024-03-17T01:51:11;1.03;;;0.70;;
75614;SDS011;64199;48.578;-4.520;2024-03-17T01:53:38;1.35;;;0.63;;
75614;SDS011;64199;48.578;-4.520;2024-03-17T01:56:05;0.52;;;0.40;;
75614;SDS011;64199;48.578;-4.520;2024-03-17T01:58:33;0.63;;;0.50;;
75614;SDS011;64199;48.578;-4.520;2024-03-17T02:01:00;0.73;;;0.50;;
75614;SDS011;64199;48.578;-4.520;2024-03-17T02:03:26;0.70;;;0.47;;
75614;SDS011;64199;48.578;-4.520;2024-03-17T02:05:52;0.60;;;0.50;;
75614;SDS011;64199;48.578;-4.520;2024-03-17T02:08:18;2.35;;;0.60;;
75614;SDS011;64199;48.578;-4.520;2024-03-17T02:10:45;3.03;;;0.50;;
75614;SDS011;64199;48.578;-4.520;2024-03-17T02:13:17;0.57;;;0.40;;
75614;SDS011;64199;48.578;-4.520;2024-03-17T02:15:43;0.85;;;0.50;;
75614;SDS011;64199;48.578;-4.520;2024-03-17T02:18:08;0.38;;;0.30;;
75614;SDS011;64199;48.578;-4.520;2024-03-17T02:20:35;2.17;;;0.60;;
75614;SDS011;64199;48.578;-4.520;2024-03-17T02:23:21;1.23;;;0.38;;
75614;SDS011;64199;48.578;-4.520;2024-03-17T02:25:47;0.63;;;0.40;;
75614;SDS011;64199;48.578;-4.520;2024-03-17T02:28:13;1.38;;;0.65;;
75614;SDS011;64199;48.578;-4.520;2024-03-17T02:30:39;1.85;;;0.38;;
75614;SDS011;64199;48.578;-4.520;2024-03-17T02:33:05;0.63;;;0.60;;
75614;SDS011;64199;48.578;-4.520;2024-03-17T02:35:31;1.10;;;0.57;;
75614;SDS011;64199;48.578;-4.520;2024-03-17T02:37:57;1.48;;;0.50;;
75614;SDS011;64199;48.578;-4.520;2024-03-17T02:40:23;1.17;;;0.57;;
75614;SDS011;64199;48.578;-4.520;2024-03-17T02:42:49;1.20;;;0.40;;
75614;SDS011;64199;48.578;-4.520;2024-03-17T02:45:15;0.82;;;0.60;;
75614;SDS011;64199;48.578;-4.520;2024-03-17T02:47:42;1.10;;;0.50;;
75614;SDS011;64199;48.578;-4.520;2024-03-17T02:50:08;1.98;;;0.40;;
75614;SDS011;64199;48.578;-4.520;2024-03-17T02:52:34;0.43;;;0.32;;
75614;SDS011;64199;48.578;-4.520;2024-03-17T02:55:00;1.98;;;0.60;;
75614;SDS011;64199;48.578;-4.520;2024-03-17T02:57:26;2.42;;;0.50;;
75614;SDS011;64199;48.578;-4.520;2024-03-17T02:59:56;1.70;;;0.60;;
75614;SDS011;64199;48.578;-4.520;2024-03-17T03:02:22;1.08;;;0.52;;
75614;SDS011;64199;48.578;-4.520;2024-03-17T03:04:48;0.75;;;0.50;;
75614;SDS011;64199;48.578;-4.520;2024-03-17T03:07:14;0.68;;;0.55;;
75614;SDS011;64199;48.578;-4.520;2024-03-17T03:09:40;1.40;;;0.52;;
75614;SDS011;64199;48.578;-4.520;2024-03-17T03:12:06;0.45;;;0.40;;
75614;SDS011;64199;48.578;-4.520;2024-03-17T03:14:33;2.42;;;0.50;;
75614;SDS011;64199;48.578;-4.520;2024-03-17T03:16:59;1.23;;;0.60;;
75614;SDS011;64199;48.578;-4.520;2024-03-17T03:19:28;0.63;;;0.55;;
75614;SDS011;64199;48.578;-4.520;2024-03-17T03:21:55;1.25;;;0.60;;
75614;SDS011;64199;48.578;-4.520;2024-03-17T03:24:21;4.75;;;0.90;;
75614;SDS011;64199;48.578;-4.520;2024-03-17T03:26:47;0.80;;;0.40;;
75614;SDS011;64199;48.578;-4.520;2024-03-17T03:29:13;1.33;;;0.45;;
75614;SDS011;64199;48.578;-4.520;2024-03-17T03:31:39;0.32;;;0.30;;
75614;SDS011;64199;48.578;-4.520;2024-03-17T03:34:06;0.70;;;0.40;;
75614;SDS011;64199;48.578;-4.520;2024-03-17T03:36:33;0.60;;;0.40;;
75614;SDS011;64199;48.578;-4.520;2024-03-17T03:39:01;0.47;;;0.40;;
75614;SDS011;64199;48.578;-4.520;2024-03-17T03:41:29;0.80;;;0.50;;
75614;SDS011;64199;48.578;-4.520;2024-03-17T03:43:56;0.43;;;0.43;;
75614;SDS011;64199;48.578;-4.520;2024-03-17T03:46:22;0.82;;;0.60;;
75614;SDS011;64199;48.578;-4.520;2024-03-17T03:48:48;0.40;;;0.40;;
75614;SDS011;64199;48.578;-4.520;2024-03-17T03:51:14;0.50;;;0.50;;
75614;SDS011;64199;48.578;-4.520;2024-03-17T03:53:40;0.55;;;0.40;;
75614;SDS011;64199;48.578;-4.520;2024-03-17T03:56:07;0.68;;;0.43;;
75614;SDS011;64199;48.578;-4.520;2024-03-17T03:58:35;0.50;;;0.40;;
75614;SDS011;64199;48.578;-4.520;2024-03-17T04:01:08;0.45;;;0.45;;
75614;SDS011;64199;48.578;-4.520;2024-03-17T04:03:36;4.47;;;0.68;;
75614;SDS011;64199;48.578;-4.520;2024-03-17T04:06:03;0.75;;;0.47;;
75614;SDS011;64199;48.578;-4.520;2024-03-17T04:08:30;1.80;;;0.50;;
75614;SDS011;64199;48.578;-4.520;2024-03-17T04:11:00;2.55;;;0.50;;
75614;SDS011;64199;48.578;-4.520;2024-03-17T04:13:27;0.88;;;0.52;;
75614;SDS011;64199;48.578;-4.520;2024-03-17T04:15:57;1.25;;;0.68;;
75614;SDS011;64199;48.578;-4.520;2024-03-17T04:18:24;3.55;;;0.77;;
75614;SDS011;64199;48.578;-4.520;2024-03-17T04:20:54;2.17;;;0.73;;
75614;SDS011;64199;48.578;-4.520;2024-03-17T04:23:21;3.00;;;0.60;;
75614;SDS011;64199;48.578;-4.520;2024-03-17T04:25:48;1.02;;;0.50;;
75614;SDS011;64199;48.578;-4.520;2024-03-17T04:28:15;0.97;;;0.57;;
75614;SDS011;64199;48.578;-4.520;2024-03-17T04:30:42;1.35;;;0.50;;
75614;SDS011;64199;48.578;-4.520;2024-03-17T04:33:11;2.63;;;0.80;;
75614;SDS011;64199;48.578;-4.520;2024-03-17T04:35:38;4.30;;;0.75;;
75614;SDS011;64199;48.578;-4.520;2024-03-17T04:38:05;0.80;;;0.57;;
75614;SDS011;64199;48.578;-4.520;2024-03-17T04:40:34;1.63;;;0.60;;
75614;SDS011;64199;48.578;-4.520;2024-03-17T04:43:05;1.13;;;0.60;;
75614;SDS011;64199;48.578;-4.520;2024-03-17T04:45:31;0.90;;;0.60;;
75614;SDS011;64199;48.578;-4.520;2024-03-17T04:47:57;2.25;;;0.77;;
75614;SDS011;64199;48.578;-4.520;2024-03-17T04:50:23;2.88;;;0.60;;
75614;SDS011;64199;48.578;-4.520;2024-03-17T04:52:49;0.95;;;0.70;;
75614;SDS011;64199;48.578;-4.520;2024-03-17T04:55:15;1.20;;;0.60;;
75614;SDS011;64199;48.578;-4.520;2024-03-17T05:00:10;1.50;;;0.60;;
75614;SDS011;64199;48.578;-4.520;2024-03-17T05:02:37;2.15;;;0.60;;
75614;SDS011;64199;48.578;-4.520;2024-03-17T05:05:04;1.75;;;0.60;;
75614;SDS011;64199;48.578;-4.520;2024-03-17T05:07:31;1.38;;;0.73;;
75614;SDS011;64199;48.578;-4.520;2024-03-17T05:09:57;1.98;;;0.55;;
75614;SDS011;64199;48.578;-4.520;2024-03-17T05:12:23;1.48;;;0.68;;
75614;SDS011;64199;48.578;-4.520;2024-03-17T05:14:49;2.97;;;0.70;;
75614;SDS011;64199;48.578;-4.520;2024-03-17T05:17:14;2.92;;;1.00;;
75614;SDS011;64199;48.578;-4.520;2024-03-17T05:19:40;1.52;;;0.60;;
75614;SDS011;64199;48.578;-4.520;2024-03-17T05:22:07;0.98;;;0.50;;
75614;SDS011;64199;48.578;-4.520;2024-03-17T05:24:33;1.13;;;0.60;;
75614;SDS011;64199;48.578;-4.520;2024-03-17T05:26:58;0.40;;;0.40;;
75614;SDS011;64199;48.578;-4.520;2024-03-17T05:29:24;1.10;;;0.70;;
75614;SDS011;64199;48.578;-4.520;2024-03-17T05:31:50;0.65;;;0.50;;
75614;SDS011;64199;48.578;-4.520;2024-03-17T05:34:16;0.98;;;0.60;;
75614;SDS011;64199;48.578;-4.520;2024-03-17T05:36:42;1.25;;;0.60;;
75614;SDS011;64199;48.578;-4.520;2024-03-17T05:39:08;1.25;;;0.60;;
75614;SDS011;64199;48.578;-4.520;2024-03-17T05:41:33;2.45;;;0.90;;
75614;SDS011;64199;48.578;-4.520;2024-03-17T05:44:00;0.75;;;0.68;;
75614;SDS011;64199;48.578;-4.520;2024-03-17T05:46:28;0.43;;;0.40;;
75614;SDS011;64199;48.578;-4.520;2024-03-17T05:48:54;0.60;;;0.60;;
75614;SDS011;64199;48.578;-4.520;2024-03-17T05:51:21;1.55;;;0.60;;
75614;SDS011;64199;48.578;-4.520;2024-03-17T05:53:47;0.77;;;0.50;;
75614;SDS011;64199;48.578;-4.520;2024-03-17T05:56:13;7.63;;;0.70;;
75614;SDS011;64199;48.578;-4.520;2024-03-17T05:58:41;6.78;;;0.73;;
75614;SDS011;64199;48.578;-4.520;2024-03-17T06:01:07;1.50;;;0.70;;
75614;SDS011;64199;48.578;-4.520;2024-03-17T06:03:34;4.38;;;0.93;;
75614;SDS011;64199;48.578;-4.520;2024-03-17T06:06:03;0.82;;;0.60;;
75614;SDS011;64199;48.578;-4.520;2024-03-17T06:08:35;2.22;;;0.50;;
75614;SDS011;64199;48.578;-4.520;2024-03-17T06:11:01;2.65;;;0.70;;
75614;SDS011;64199;48.578;-4.520;2024-03-17T06:13:27;0.55;;;0.50;;
75614;SDS011;64199;48.578;-4.520;2024-03-17T06:15:53;1.73;;;0.50;;
75614;SDS011;64199;48.578;-4.520;2024-03-17T06:18:19;1.25;;;0.60;;
75614;SDS011;64199;48.578;-4.520;2024-03-17T06:20:45;0.82;;;0.40;;
75614;SDS011;64199;48.578;-4.520;2024-03-17T06:23:12;1.33;;;0.57;;
75614;SDS011;64199;48.578;-4.520;2024-03-17T06:25:43;1.35;;;0.50;;
75614;SDS011;64199;48.578;-4.520;2024-03-17T06:28:11;0.63;;;0.50;;
75614;SDS011;64199;48.578;-4.520;2024-03-17T06:30:44;1.77;;;0.50;;
75614;SDS011;64199;48.578;-4.520;2024-03-17T06:33:16;2.08;;;0.52;;
75614;SDS011;64199;48.578;-4.520;2024-03-17T06:35:45;1.75;;;0.85;;
75614;SDS011;64199;48.578;-4.520;2024-03-17T06:38:12;2.08;;;1.00;;
75614;SDS011;64199;48.578;-4.520;2024-03-17T06:40:40;3.08;;;1.00;;
75614;SDS011;64199;48.578;-4.520;2024-03-17T06:43:06;0.50;;;0.50;;
75614;SDS011;64199;48.578;-4.520;2024-03-17T06:45:33;0.88;;;0.60;;
75614;SDS011;64199;48.578;-4.520;2024-03-17T06:47:59;2.38;;;0.70;;
75614;SDS011;64199;48.578;-4.520;2024-03-17T06:50:25;0.50;;;0.50;;
75614;SDS011;64199;48.578;-4.520;2024-03-17T06:52:51;1.10;;;0.47;;
75614;SDS011;64199;48.578;-4.520;2024-03-17T06:55:17;2.50;;;0.45;;
75614;SDS011;64199;48.578;-4.520;2024-03-17T06:57:43;0.95;;;0.50;;
75614;SDS011;64199;48.578;-4.520;2024-03-17T07:00:10;0.73;;;0.50;;
75614;SDS011;64199;48.578;-4.520;2024-03-17T07:02:39;1.13;;;0.35;;
75614;SDS011;64199;48.578;-4.520;2024-03-17T07:05:07;1.20;;;0.50;;
75614;SDS011;64199;48.578;-4.520;2024-03-17T07:07:32;0.35;;;0.32;;
75614;SDS011;64199;48.578;-4.520;2024-03-17T07:09:59;1.17;;;0.65;;
75614;SDS011;64199;48.578;-4.520;2024-03-17T07:12:30;0.80;;;0.52;;
75614;SDS011;64199;48.578;-4.520;2024-03-17T07:14:56;0.77;;;0.30;;
75614;SDS011;64199;48.578;-4.520;2024-03-17T07:17:21;0.35;;;0.30;;
75614;SDS011;64199;48.578;-4.520;2024-03-17T07:19:47;0.63;;;0.32;;
75614;SDS011;64199;48.578;-4.520;2024-03-17T07:22:14;1.13;;;0.50;;
75614;SDS011;64199;48.578;-4.520;2024-03-17T07:24:40;0.77;;;0.50;;
75614;SDS011;64199;48.578;-4.520;2024-03-17T07:27:09;0.40;;;0.30;;
75614;SDS011;64199;48.578;-4.520;2024-03-17T07:29:38;1.42;;;0.55;;
75614;SDS011;64199;48.578;-4.520;2024-03-17T07:32:05;1.85;;;0.40;;
75614;SDS011;64199;48.578;-4.520;2024-03-17T07:34:31;0.85;;;0.40;;
75614;SDS011;64199;48.578;-4.520;2024-03-17T07:36:57;1.23;;;0.50;;
75614;SDS011;64199;48.578;-4.520;2024-03-17T07:39:28;2.63;;;0.50;;
75614;SDS011;64199;48.578;-4.520;2024-03-17T07:41:57;0.20;;;0.20;;
75614;SDS011;64199;48.578;-4.520;2024-03-17T07:44:27;0.30;;;0.30;;
75614;SDS011;64199;48.578;-4.520;2024-03-17T07:46:58;1.73;;;0.40;;
75614;SDS011;64199;48.578;-4.520;2024-03-17T07:49:24;1.65;;;0.25;;
75614;SDS011;64199;48.578;-4.520;2024-03-17T07:51:50;0.95;;;0.47;;
75614;SDS011;64199;48.578;-4.520;2024-03-17T07:54:16;2.92;;;0.30;;
75614;SDS011;64199;48.578;-4.520;2024-03-17T07:56:44;1.02;;;0.30;;
75614;SDS011;64199;48.578;-4.520;2024-03-17T07:59:09;0.40;;;0.30;;
75614;SDS011;64199;48.578;-4.520;2024-03-17T08:01:42;3.28;;;0.45;;
75614;SDS011;64199;48.578;-4.520;2024-03-17T08:04:07;3.08;;;0.75;;
75614;SDS011;64199;48.578;-4.520;2024-03-17T08:06:33;0.98;;;0.50;;
75614;SDS011;64199;48.578;-4.520;2024-03-17T08:08:59;1.33;;;0.35;;
75614;SDS011;64199;48.578;-4.520;2024-03-17T08:11:25;1.48;;;0.57;;
75614;SDS011;64199;48.578;-4.520;2024-03-17T08:13:51;1.08;;;0.30;;
75614;SDS011;64199;48.578;-4.520;2024-03-17T08:16:18;0.50;;;0.30;;
75614;SDS011;64199;48.578;-4.520;2024-03-17T08:18:44;0.45;;;0.25;;
75614;SDS011;64199;48.578;-4.520;2024-03-17T08:21:09;0.50;;;0.35;;
75614;SDS011;64199;48.578;-4.520;2024-03-17T08:23:35;1.90;;;0.52;;
75614;SDS011;64199;48.578;-4.520;2024-03-17T08:26:06;1.20;;;0.57;;
75614;SDS011;64199;48.578;-4.520;2024-03-17T08:28:33;0.68;;;0.38;;
75614;SDS011;64199;48.578;-4.520;2024-03-17T08:31:00;0.60;;;0.32;;
75614;SDS011;64199;48.578;-4.520;2024-03-17T08:33:27;2.35;;;0.40;;
75614;SDS011;64199;48.578;-4.520;2024-03-17T08:38:24;2.22;;;0.60;;
75614;SDS011;64199;48.578;-4.520;2024-03-17T08:43:19;0.70;;;0.40;;
75614;SDS011;64199;48.578;-4.520;2024-03-17T08:45:45;0.30;;;0.30;;
75614;SDS011;64199;48.578;-4.520;2024-03-17T08:50:53;0.82;;;0.50;;
75614;SDS011;64199;48.578;-4.520;2024-03-17T08:53:19;0.75;;;0.43;;
75614;SDS011;64199;48.578;-4.520;2024-03-17T08:55:46;0.73;;;0.40;;
75614;SDS011;64199;48.578;-4.520;2024-03-17T08:58:12;1.90;;;0.32;;
75614;SDS011;64199;48.578;-4.520;2024-03-17T09:00:38;1.02;;;0.40;;
75614;SDS011;64199;48.578;-4.520;2024-03-17T09:03:06;1.05;;;0.30;;
75614;SDS011;64199;48.578;-4.520;2024-03-17T09:05:35;1.50;;;0.60;;
75614;SDS011;64199;48.578;-4.520;2024-03-17T09:08:01;0.57;;;0.25;;
75614;SDS011;64199;48.578;-4.520;2024-03-17T09:10:27;0.43;;;0.30;;
75614;SDS011;64199;48.578;-4.520;2024-03-17T09:12:53;0.55;;;0.40;;
75614;SDS011;64199;48.578;-4.520;2024-03-17T09:15:19;1.65;;;0.57;;
75614;SDS011;64199;48.578;-4.520;2024-03-17T09:17:46;0.93;;;0.47;;
75614;SDS011;64199;48.578;-4.520;2024-03-17T09:20:12;1.55;;;0.40;;
75614;SDS011;64199;48.578;-4.520;2024-03-17T09:22:40;0.47;;;0.40;;
75614;SDS011;64199;48.578;-4.520;2024-03-17T09:25:07;0.75;;;0.50;;
75614;SDS011;64199;48.578;-4.520;2024-03-17T09:27:33;2.25;;;0.45;;
75614;SDS011;64199;48.578;-4.520;2024-03-17T09:30:02;0.77;;;0.52;;
75614;SDS011;64199;48.578;-4.520;2024-03-17T09:32:31;0.73;;;0.20;;
75614;SDS011;64199;48.578;-4.520;2024-03-17T09:34:57;0.50;;;0.40;;
75614;SDS011;64199;48.578;-4.520;2024-03-17T09:37:24;1.45;;;0.68;;
75614;SDS011;64199;48.578;-4.520;2024-03-17T09:39:50;0.65;;;0.38;;
75614;SDS011;64199;48.578;-4.520;2024-03-17T09:42:19;0.68;;;0.40;;
75614;SDS011;64199;48.578;-4.520;2024-03-17T09:44:48;1.33;;;0.47;;
75614;SDS011;64199;48.578;-4.520;2024-03-17T09:47:24;1.25;;;0.50;;
75614;SDS011;64199;48.578;-4.520;2024-03-17T09:49:51;1.45;;;0.50;;
75614;SDS011;64199;48.578;-4.520;2024-03-17T09:52:19;1.27;;;0.60;;
75614;SDS011;64199;48.578;-4.520;2024-03-17T09:54:49;2.15;;;0.60;;
75614;SDS011;64199;48.578;-4.520;2024-03-17T09:57:38;1.75;;;0.75;;
75614;SDS011;64199;48.578;-4.520;2024-03-17T10:00:11;1.98;;;0.47;;
75614;SDS011;64199;48.578;-4.520;2024-03-17T10:02:43;0.80;;;0.30;;
75614;SDS011;64199;48.578;-4.520;2024-03-17T10:05:19;1.92;;;0.70;;
75614;SDS011;64199;48.578;-4.520;2024-03-17T10:10:14;4.25;;;0.50;;
75614;SDS011;64199;48.578;-4.520;2024-03-17T10:12:41;4.35;;;0.70;;
75614;SDS011;64199;48.578;-4.520;2024-03-17T10:15:10;3.03;;;0.70;;
75614;SDS011;64199;48.578;-4.520;2024-03-17T10:17:37;1.92;;;0.68;;
75614;SDS011;64199;48.578;-4.520;2024-03-17T10:20:15;1.95;;;0.85;;
75614;SDS011;64199;48.578;-4.520;2024-03-17T10:22:57;5.32;;;0.88;;
75614;SDS011;64199;48.578;-4.520;2024-03-17T10:25:27;1.60;;;0.70;;
75614;SDS011;64199;48.578;-4.520;2024-03-17T10:27:57;7.82;;;0.98;;
75614;SDS011;64199;48.578;-4.520;2024-03-17T10:30:23;6.75;;;0.85;;
75614;SDS011;64199;48.578;-4.520;2024-03-17T10:35:27;3.85;;;1.33;;
75614;SDS011;64199;48.578;-4.520;2024-03-17T10:37:57;4.57;;;1.10;;
75614;SDS011;64199;48.578;-4.520;2024-03-17T10:40:25;5.78;;;1.08;;
75614;SDS011;64199;48.578;-4.520;2024-03-17T10:42:52;7.90;;;1.42;;
75614;SDS011;64199;48.578;-4.520;2024-03-17T10:45:18;6.47;;;1.23;;
75614;SDS011;64199;48.578;-4.520;2024-03-17T10:47:47;3.85;;;0.80;;
75614;SDS011;64199;48.578;-4.520;2024-03-17T10:50:23;5.13;;;1.00;;
75614;SDS011;64199;48.578;-4.520;2024-03-17T10:52:49;4.18;;;1.10;;
75614;SDS011;64199;48.578;-4.520;2024-03-17T10:55:23;4.15;;;1.00;;
75614;SDS011;64199;48.578;-4.520;2024-03-17T10:57:51;3.00;;;0.90;;
75614;SDS011;64199;48.578;-4.520;2024-03-17T11:00:21;3.45;;;1.05;;
75614;SDS011;64199;48.578;-4.520;2024-03-17T11:02:48;5.88;;;0.98;;
75614;SDS011;64199;48.578;-4.520;2024-03-17T11:07:55;1.67;;;0.75;;
75614;SDS011;64199;48.578;-4.520;2024-03-17T11:10:35;3.85;;;1.02;;
75614;SDS011;64199;48.578;-4.520;2024-03-17T11:13:03;3.10;;;0.90;;
75614;SDS011;64199;48.578;-4.520;2024-03-17T11:20:36;3.92;;;0.90;;
75614;SDS011;64199;48.578;-4.520;2024-03-17T11:25:36;3.85;;;1.08;;
75614;SDS011;64199;48.578;-4.520;2024-03-17T11:28:04;1.55;;;0.73;;
75614;SDS011;64199;48.578;-4.520;2024-03-17T11:38:55;10.50;;;1.40;;
75614;SDS011;64199;48.578;-4.520;2024-03-17T11:47:04;5.22;;;1.05;;
75614;SDS011;64199;48.578;-4.520;2024-03-17T11:49:33;3.67;;;0.90;;
75614;SDS011;64199;48.578;-4.520;2024-03-17T11:52:02;7.90;;;1.48;;
75614;SDS011;64199;48.578;-4.520;2024-03-17T11:54:42;4.07;;;1.10;;
75614;SDS011;64199;48.578;-4.520;2024-03-17T11:57:10;4.57;;;0.88;;
75614;SDS011;64199;48.578;-4.520;2024-03-17T11:59:47;7.53;;;1.00;;
75614;SDS011;64199;48.578;-4.520;2024-03-17T12:02:21;5.25;;;1.30;;
75614;SDS011;64199;48.578;-4.520;2024-03-17T12:04:56;4.68;;;1.00;;
75614;SDS011;64199;48.578;-4.520;2024-03-17T12:07:23;3.10;;;0.93;;
75614;SDS011;64199;48.578;-4.520;2024-03-17T12:09:50;3.65;;;0.82;;
75614;SDS011;64199;48.578;-4.520;2024-03-17T12:12:18;4.28;;;1.20;;
75614;SDS011;64199;48.578;-4.520;2024-03-17T12:17:13;4.20;;;0.90;;
75614;SDS011;64199;48.578;-4.520;2024-03-17T12:19:45;3.40;;;1.40;;
75614;SDS011;64199;48.578;-4.520;2024-03-17T12:22:14;3.22;;;0.80;;
75614;SDS011;64199;48.578;-4.520;2024-03-17T12:24:43;4.60;;;1.00;;
75614;SDS011;64199;48.578;-4.520;2024-03-17T12:27:15;2.30;;;0.80;;
75614;SDS011;64199;48.578;-4.520;2024-03-17T12:29:47;6.93;;;0.85;;
75614;SDS011;64199;48.578;-4.520;2024-03-17T12:32:23;2.87;;;1.00;;
75614;SDS011;64199;48.578;-4.520;2024-03-17T12:34:51;4.65;;;0.93;;
75614;SDS011;64199;48.578;-4.520;2024-03-17T12:37:22;4.43;;;1.10;;
75614;SDS011;64199;48.578;-4.520;2024-03-17T12:39:59;4.47;;;1.13;;
75614;SDS011;64199;48.578;-4.520;2024-03-17T12:42:25;4.05;;;0.80;;
75614;SDS011;64199;48.578;-4.520;2024-03-17T12:44:53;3.13;;;1.02;;
75614;SDS011;64199;48.578;-4.520;2024-03-17T12:47:23;5.82;;;1.00;;
75614;SDS011;64199;48.578;-4.520;2024-03-17T12:55:07;2.25;;;0.93;;
75614;SDS011;64199;48.578;-4.520;2024-03-17T12:57:53;4.03;;;1.10;;
75614;SDS011;64199;48.578;-4.520;2024-03-17T13:03:26;7.88;;;1.23;;
75614;SDS011;64199;48.578;-4.520;2024-03-17T13:05:54;2.70;;;0.93;;
75614;SDS011;64199;48.578;-4.520;2024-03-17T13:08:20;2.33;;;0.80;;
75614;SDS011;64199;48.578;-4.520;2024-03-17T13:10:46;3.72;;;0.98;;
75614;SDS011;64199;48.578;-4.520;2024-03-17T13:13:12;2.10;;;0.77;;
75614;SDS011;64199;48.578;-4.520;2024-03-17T13:15:42;4.65;;;0.90;;
75614;SDS011;64199;48.578;-4.520;2024-03-17T13:18:08;2.80;;;1.00;;
75614;SDS011;64199;48.578;-4.520;2024-03-17T13:20:37;2.40;;;0.90;;
75614;SDS011;64199;48.578;-4.520;2024-03-17T13:23:03;1.45;;;0.77;;
75614;SDS011;64199;48.578;-4.520;2024-03-17T13:25:29;5.63;;;0.90;;
75614;SDS011;64199;48.578;-4.520;2024-03-17T13:27:59;3.65;;;0.90;;
75614;SDS011;64199;48.578;-4.520;2024-03-17T13:30:26;5.05;;;1.27;;
75614;SDS011;64199;48.578;-4.520;2024-03-17T13:32:54;1.40;;;0.80;;
75614;SDS011;64199;48.578;-4.520;2024-03-17T13:35:26;3.03;;;0.90;;
75614;SDS011;64199;48.578;-4.520;2024-03-17T13:37:54;1.90;;;0.88;;
75614;SDS011;64199;48.578;-4.520;2024-03-17T13:40:21;2.55;;;0.80;;
75614;SDS011;64199;48.578;-4.520;2024-03-17T13:42:48;3.47;;;0.98;;
75614;SDS011;64199;48.578;-4.520;2024-03-17T13:45:16;3.40;;;1.13;;
75614;SDS011;64199;48.578;-4.520;2024-03-17T13:47:48;1.83;;;0.80;;
75614;SDS011;64199;48.578;-4.520;2024-03-17T13:50:20;3.13;;;1.10;;
75614;SDS011;64199;48.578;-4.520;2024-03-17T13:52:46;3.80;;;1.15;;
75614;SDS011;64199;48.578;-4.520;2024-03-17T13:55:13;3.22;;;1.05;;
75614;SDS011;64199;48.578;-4.520;2024-03-17T13:57:44;2.47;;;0.80;;
75614;SDS011;64199;48.578;-4.520;2024-03-17T14:00:13;2.40;;;0.88;;
75614;SDS011;64199;48.578;-4.520;2024-03-17T14:02:49;3.70;;;0.90;;
75614;SDS011;64199;48.578;-4.520;2024-03-17T14:05:18;2.50;;;0.85;;
75614;SDS011;64199;48.578;-4.520;2024-03-17T14:07:48;2.67;;;1.00;;
75614;SDS011;64199;48.578;-4.520;2024-03-17T14:10:18;2.05;;;0.73;;
75614;SDS011;64199;48.578;-4.520;2024-03-17T14:12:44;3.10;;;0.98;;
75614;SDS011;64199;48.578;-4.520;2024-03-17T14:15:11;1.88;;;0.82;;
75614;SDS011;64199;48.578;-4.520;2024-03-17T14:17:42;1.73;;;0.70;;
75614;SDS011;64199;48.578;-4.520;2024-03-17T14:20:13;3.10;;;0.90;;
75614;SDS011;64199;48.578;-4.520;2024-03-17T14:22:40;4.00;;;1.15;;
75614;SDS011;64199;48.578;-4.520;2024-03-17T14:25:10;2.88;;;0.80;;
75614;SDS011;64199;48.578;-4.520;2024-03-17T14:27:42;3.05;;;0.75;;
75614;SDS011;64199;48.578;-4.520;2024-03-17T14:30:08;2.50;;;0.90;;
75614;SDS011;64199;48.578;-4.520;2024-03-17T14:32:38;2.58;;;0.98;;
75614;SDS011;64199;48.578;-4.520;2024-03-17T14:35:04;3.22;;;0.73;;
75614;SDS011;64199;48.578;-4.520;2024-03-17T14:37:30;3.30;;;0.73;;
75614;SDS011;64199;48.578;-4.520;2024-03-17T14:39:57;2.47;;;0.60;;
75614;SDS011;64199;48.578;-4.520;2024-03-17T14:42:24;2.15;;;0.70;;
75614;SDS011;64199;48.578;-4.520;2024-03-17T14:44:50;2.38;;;1.05;;
75614;SDS011;64199;48.578;-4.520;2024-03-17T14:47:16;1.77;;;0.63;;
75614;SDS011;64199;48.578;-4.520;2024-03-17T14:49:42;1.85;;;0.65;;
75614;SDS011;64199;48.578;-4.520;2024-03-17T14:52:08;1.23;;;0.60;;
75614;SDS011;64199;48.578;-4.520;2024-03-17T14:54:34;2.05;;;0.60;;
75614;SDS011;64199;48.578;-4.520;2024-03-17T14:57:00;1.95;;;0.70;;
75614;SDS011;64199;48.578;-4.520;2024-03-17T14:59:26;1.35;;;0.65;;
75614;SDS011;64199;48.578;-4.520;2024-03-17T15:01:52;2.17;;;0.80;;
75614;SDS011;64199;48.578;-4.520;2024-03-17T15:04:18;7.65;;;0.77;;
75614;SDS011;64199;48.578;-4.520;2024-03-17T15:06:44;2.05;;;0.60;;
75614;SDS011;64199;48.578;-4.520;2024-03-17T15:09:10;1.77;;;0.57;;
75614;SDS011;64199;48.578;-4.520;2024-03-17T15:11:37;2.05;;;0.70;;
75614;SDS011;64199;48.578;-4.520;2024-03-17T15:14:03;2.28;;;0.80;;
75614;SDS011;64199;48.578;-4.520;2024-03-17T15:16:33;1.92;;;0.77;;
75614;SDS011;64199;48.578;-4.520;2024-03-17T15:18:59;2.42;;;0.65;;
75614;SDS011;64199;48.578;-4.520;2024-03-17T15:21:25;3.35;;;0.70;;
75614;SDS011;64199;48.578;-4.520;2024-03-17T15:23:51;1.48;;;0.85;;
75614;SDS011;64199;48.578;-4.520;2024-03-17T15:26:17;3.47;;;1.00;;